Time;durP1;ratioP1;P1;durP2;ratioP2;P2;SDS_P1;SDS_P2;PMS_P1;PMS_P2;Temp;Humidity;BMP_temperature;BMP_pressure;BME280_temperature;BME280_humidity;BME280_pressure;Samples;Min_cycle;Max_cycle;Signal;HPM_P1;HPM_P2
2023/03/20 00:02:18;;;;;;;8.00;6.00;;;10.10;51.70;;;;;;5012446;28;46339;-84
2023/03/20 00:04:43;;;;;;;9.03;5.70;;;10.10;51.70;;;;;;5010389;28;46210;-83
2023/03/20 00:07:11;;;;;;;5.83;4.53;;;10.10;53.00;;;;;;5013234;28;47291;-83
2023/03/20 00:09:37;;;;;;;5.20;3.77;;;10.10;51.70;;;;;;5016058;28;47224;-83
2023/03/20 00:12:04;;;;;;;7.00;4.17;;;10.10;51.70;;;;;;5022850;28;46474;-83
2023/03/20 00:14:30;;;;;;;6.03;4.10;;;10.10;51.70;;;;;;5023986;28;46457;-83
2023/03/20 00:16:56;;;;;;;7.00;4.03;;;10.10;51.70;;;;;;5048258;28;46272;-82
2023/03/20 00:19:24;;;;;;;8.77;4.17;;;10.10;51.70;;;;;;5017421;28;46393;-82
2023/03/20 00:21:51;;;;;;;7.67;3.80;;;10.10;51.70;;;;;;5014930;28;46266;-84
2023/03/20 00:24:17;;;;;;;4.90;3.57;;;10.10;51.70;;;;;;5016108;28;46461;-83
2023/03/20 00:26:45;;;;;;;5.90;3.60;;;10.10;51.70;;;;;;5023104;28;46417;-83
2023/03/20 00:29:31;;;;;;;4.40;3.27;;;10.10;51.70;;;;;;5046060;28;49511;-84
2023/03/20 00:31:57;;;;;;;4.30;3.40;;;10.10;51.70;;;;;;5021292;28;46371;-83
2023/03/20 00:34:30;;;;;;;5.33;3.60;;;10.10;51.70;;;;;;5018519;28;46479;-83
2023/03/20 00:36:56;;;;;;;7.40;3.40;;;10.10;51.70;;;;;;5022635;28;46654;-82
2023/03/20 00:39:23;;;;;;;4.50;3.10;;;10.00;51.60;;;;;;5021572;28;48494;-82
2023/03/20 00:41:59;;;;;;;3.97;2.90;;;10.00;51.60;;;;;;5021751;28;46384;-84
2023/03/20 00:44:31;;;;;;;4.80;3.23;;;10.00;51.60;;;;;;5030671;28;46591;-82
2023/03/20 00:47:22;;;;;;;4.80;2.83;;;10.00;51.60;;;;;;5055121;28;46428;-83
2023/03/20 00:49:50;;;;;;;3.23;2.40;;;10.00;51.70;;;;;;5016706;28;46960;-82
2023/03/20 00:52:17;;;;;;;6.87;2.73;;;10.00;51.80;;;;;;5018418;28;46321;-82
2023/03/20 00:54:43;;;;;;;3.63;2.80;;;10.00;51.60;;;;;;5017183;28;46419;-84
2023/03/20 00:57:19;;;;;;;3.60;2.60;;;10.00;51.70;;;;;;5015013;28;46487;-82
2023/03/20 00:59:58;;;;;;;3.30;2.30;;;10.00;51.60;;;;;;5019852;28;46286;-84
2023/03/20 01:02:29;;;;;;;4.33;2.30;;;10.00;51.60;;;;;;5020944;28;46583;-83
2023/03/20 01:04:56;;;;;;;4.30;2.30;;;9.90;52.50;;;;;;5019811;28;46459;-82
2023/03/20 01:07:21;;;;;;;4.90;2.40;;;10.00;51.60;;;;;;5025786;28;46379;-83
2023/03/20 01:09:47;;;;;;;14.27;3.30;;;9.90;52.90;;;;;;5023343;28;47474;-83
2023/03/20 01:12:14;;;;;;;3.80;2.37;;;9.90;53.10;;;;;;5020284;28;46482;-82
2023/03/20 01:14:40;;;;;;;3.60;2.37;;;9.90;53.20;;;;;;5024093;28;46461;-84
2023/03/20 01:17:16;;;;;;;6.50;2.60;;;9.90;53.20;;;;;;5030954;28;46519;-86
2023/03/20 01:19:42;;;;;;;4.10;2.00;;;9.80;53.10;;;;;;5019278;28;47094;-84
2023/03/20 01:22:08;;;;;;;5.10;2.40;;;9.90;52.90;;;;;;5012824;28;46506;-83
2023/03/20 01:24:34;;;;;;;2.90;1.90;;;9.90;52.70;;;;;;5020208;28;45716;-83
2023/03/20 01:27:02;;;;;;;3.17;2.20;;;9.90;52.50;;;;;;5015043;28;45882;-82
2023/03/20 01:29:29;;;;;;;3.03;2.37;;;9.90;52.60;;;;;;5017627;28;47385;-80
2023/03/20 01:31:54;;;;;;;3.60;1.80;;;9.90;52.60;;;;;;5018843;28;46302;-79
2023/03/20 01:34:20;;;;;;;3.90;2.17;;;9.90;52.50;;;;;;5018243;28;46468;-83
2023/03/20 01:36:55;;;;;;;2.40;1.77;;;9.90;52.50;;;;;;5021617;28;46472;-83
2023/03/20 01:39:27;;;;;;;2.90;2.00;;;9.90;52.50;;;;;;5045312;28;46968;-82
2023/03/20 01:41:53;;;;;;;3.33;1.87;;;9.90;52.50;;;;;;5047352;28;46173;-82
2023/03/20 01:44:26;;;;;;;2.93;1.87;;;9.90;52.50;;;;;;5018813;28;46444;-82
2023/03/20 01:46:52;;;;;;;2.40;1.60;;;9.90;52.50;;;;;;5015768;28;46880;-82
2023/03/20 01:49:18;;;;;;;3.10;1.97;;;9.90;52.50;;;;;;5020939;28;49207;-83
2023/03/20 01:51:44;;;;;;;5.20;2.27;;;9.90;52.50;;;;;;5021833;28;46513;-82
2023/03/20 01:54:19;;;;;;;3.80;1.83;;;9.90;52.50;;;;;;5019708;28;45932;-83
2023/03/20 01:56:55;;;;;;;5.43;1.93;;;9.90;52.50;;;;;;5050297;28;45827;-82
2023/03/20 01:59:55;;;;;;;2.30;1.50;;;10.10;51.70;;;;;;5016946;28;47172;-82
2023/03/20 02:02:26;;;;;;;4.13;1.83;;;9.90;52.50;;;;;;5018438;28;46439;-82
2023/03/20 02:04:58;;;;;;;2.60;1.77;;;9.90;52.50;;;;;;5018073;28;46403;-83
2023/03/20 02:07:24;;;;;;;4.07;1.80;;;9.90;52.60;;;;;;5019865;28;46241;-81
2023/03/20 02:09:50;;;;;;;2.80;1.60;;;9.90;52.50;;;;;;5018743;28;46300;-82
2023/03/20 02:12:18;;;;;;;2.50;1.80;;;9.90;52.60;;;;;;5020833;28;46324;-82
2023/03/20 02:14:46;;;;;;;6.40;1.90;;;9.90;52.50;;;;;;5019030;28;46301;-80
2023/03/20 02:17:12;;;;;;;2.70;1.70;;;9.80;52.40;;;;;;5023268;28;46453;-82
2023/03/20 02:19:51;;;;;;;3.10;2.00;;;9.80;52.40;;;;;;5014067;28;46354;-82
2023/03/20 02:22:55;;;;;;;3.70;2.00;;;9.80;52.40;;;;;;5017654;28;46336;-82
2023/03/20 02:25:39;;;;;;;3.90;1.80;;;9.80;52.40;;;;;;5015402;28;46365;-82
2023/03/20 02:28:17;;;;;;;3.97;2.10;;;9.70;52.30;;;;;;5016387;28;46468;-83
2023/03/20 02:30:42;;;;;;;4.10;1.97;;;9.70;52.30;;;;;;5029045;28;49510;-82
2023/03/20 02:33:45;;;;;;;5.10;1.83;;;9.70;52.40;;;;;;5016706;28;46409;-82
2023/03/20 02:36:17;;;;;;;4.00;2.00;;;9.70;52.40;;;;;;5027474;28;46419;-82
2023/03/20 02:39:10;;;;;;;4.93;1.80;;;9.70;52.40;;;;;;5014291;28;46455;-82
2023/03/20 02:41:57;;;;;;;2.47;1.60;;;9.70;52.40;;;;;;5006680;28;46048;-82
2023/03/20 02:44:30;;;;;;;2.47;1.53;;;9.70;52.30;;;;;;5050058;28;46614;-83
2023/03/20 02:47:13;;;;;;;3.17;1.63;;;9.70;52.40;;;;;;5013434;28;46777;-82
2023/03/20 02:50:08;;;;;;;3.10;1.70;;;9.70;52.40;;;;;;5014912;28;47219;-83
2023/03/20 02:53:01;;;;;;;3.70;1.90;;;9.60;52.30;;;;;;5012435;28;46841;-86
2023/03/20 02:55:35;;;;;;;2.80;1.73;;;9.60;52.30;;;;;;5019581;28;46557;-83
2023/03/20 02:58:18;;;;;;;3.27;1.60;;;9.60;52.30;;;;;;5017413;28;46383;-81
2023/03/20 03:01:21;;;;;;;3.10;1.93;;;9.50;52.20;;;;;;5018078;28;46408;-86
2023/03/20 03:03:55;;;;;;;4.00;1.87;;;9.50;52.60;;;;;;5010393;28;46604;-83
2023/03/20 03:06:23;;;;;;;2.63;1.83;;;9.50;52.30;;;;;;5024591;28;46577;-85
2023/03/20 03:08:54;;;;;;;2.33;1.53;;;9.50;52.20;;;;;;5011626;28;46474;-80
2023/03/20 03:11:20;;;;;;;2.87;2.10;;;9.40;52.10;;;;;;5009776;28;47003;-80
2023/03/20 03:13:52;;;;;;;2.83;1.90;;;9.50;52.20;;;;;;5014242;28;46308;-80
2023/03/20 03:16:31;;;;;;;4.10;2.10;;;9.50;52.20;;;;;;5029962;28;46729;-80
2023/03/20 03:19:20;;;;;;;3.37;1.73;;;9.50;52.20;;;;;;5011697;28;46473;-81
2023/03/20 03:21:46;;;;;;;3.07;1.80;;;9.50;52.20;;;;;;5011933;28;46593;-79
2023/03/20 03:24:42;;;;;;;4.20;2.00;;;9.50;52.20;;;;;;5018567;28;47368;-78
2023/03/20 03:27:52;;;;;;;3.33;1.63;;;9.50;52.20;;;;;;5011724;28;46493;-81
2023/03/20 03:30:24;;;;;;;4.20;2.10;;;9.50;52.20;;;;;;5010336;28;46504;-80
2023/03/20 03:33:08;;;;;;;2.67;2.00;;;9.40;52.10;;;;;;5011788;28;46232;-80
2023/03/20 03:35:35;;;;;;;2.97;1.73;;;9.30;52.10;;;;;;5016784;28;47619;-80
2023/03/20 03:38:28;;;;;;;3.53;2.00;;;9.10;53.30;;;;;;5017181;28;46257;-81
2023/03/20 03:41:13;;;;;;;3.90;2.03;;;9.00;53.70;;;;;;5011694;28;46430;-81
2023/03/20 03:43:47;;;;;;;3.07;2.33;;;8.80;54.40;;;;;;5014087;28;46375;-79
2023/03/20 03:46:23;;;;;;;5.40;2.17;;;8.80;55.00;;;;;;5046950;28;48465;-79
2023/03/20 03:48:54;;;;;;;3.80;2.37;;;8.60;56.10;;;;;;5011710;28;46433;-80
2023/03/20 03:51:23;;;;;;;4.47;2.07;;;8.50;57.30;;;;;;5015247;28;46429;-80
2023/03/20 03:53:57;;;;;;;3.97;2.30;;;8.40;58.40;;;;;;5016383;28;46501;-78
2023/03/20 03:56:26;;;;;;;5.17;2.17;;;8.20;61.00;;;;;;5013299;28;46740;-79
2023/03/20 03:58:55;;;;;;;5.93;2.47;;;8.20;60.20;;;;;;5014623;28;46648;-79
2023/03/20 04:01:22;;;;;;;4.73;2.50;;;8.20;60.10;;;;;;5013993;28;46337;-81
2023/03/20 04:03:52;;;;;;;3.17;2.43;;;8.20;60.00;;;;;;5018700;28;46708;-81
2023/03/20 04:06:19;;;;;;;5.20;2.37;;;8.00;59.90;;;;;;5013426;28;46595;-81
2023/03/20 04:08:45;;;;;;;4.20;2.80;;;7.90;60.80;;;;;;5014822;28;46382;-81
2023/03/20 04:11:23;;;;;;;3.30;2.50;;;7.90;59.70;;;;;;5015788;28;46436;-79
2023/03/20 04:13:50;;;;;;;3.70;2.50;;;7.70;59.80;;;;;;5018084;28;46603;-81
2023/03/20 04:16:17;;;;;;;3.90;3.00;;;7.60;59.90;;;;;;5014667;28;47184;-81
2023/03/20 04:18:43;;;;;;;6.07;3.30;;;7.50;60.10;;;;;;5014018;28;46562;-81
2023/03/20 04:21:09;;;;;;;4.73;3.13;;;7.40;60.40;;;;;;5012495;28;46471;-81
2023/03/20 04:23:35;;;;;;;5.10;3.67;;;7.30;60.50;;;;;;5015298;28;46333;-80
2023/03/20 04:26:01;;;;;;;5.97;3.70;;;7.30;60.70;;;;;;5046048;28;48940;-82
2023/03/20 04:28:27;;;;;;;4.80;3.40;;;7.20;60.70;;;;;;5017221;28;46383;-81
2023/03/20 04:30:53;;;;;;;4.70;3.53;;;7.10;60.90;;;;;;5018790;28;46025;-81
2023/03/20 04:33:19;;;;;;;4.57;3.30;;;7.00;61.10;;;;;;5014307;28;46597;-81
2023/03/20 04:35:45;;;;;;;8.13;4.77;;;7.00;60.90;;;;;;5013452;28;47484;-81
2023/03/20 04:38:10;;;;;;;7.43;3.97;;;7.00;60.90;;;;;;5016800;28;46382;-83
2023/03/20 04:40:36;;;;;;;6.70;3.93;;;6.90;60.70;;;;;;5017682;28;46417;-83
2023/03/20 04:43:01;;;;;;;7.90;4.10;;;6.90;60.70;;;;;;5014423;28;46595;-80
2023/03/20 04:45:27;;;;;;;7.77;4.60;;;6.90;60.90;;;;;;5015628;28;46802;-80
2023/03/20 04:47:53;;;;;;;6.60;4.50;;;6.80;61.00;;;;;;5048548;28;46670;-81
2023/03/20 04:50:18;;;;;;;6.50;4.60;;;6.80;60.90;;;;;;5013969;28;46463;-83
2023/03/20 04:52:44;;;;;;;6.83;4.80;;;6.80;60.80;;;;;;5021757;28;46405;-83
2023/03/20 04:55:10;;;;;;;9.43;5.47;;;6.80;60.80;;;;;;5015696;28;46306;-81
2023/03/20 04:57:35;;;;;;;7.20;5.00;;;6.80;60.90;;;;;;5020419;28;46648;-82
2023/03/20 05:00:01;;;;;;;7.00;5.30;;;6.90;60.70;;;;;;5015305;28;46211;-81
2023/03/20 05:02:27;;;;;;;8.13;5.60;;;7.10;60.00;;;;;;5015938;28;46921;-81
2023/03/20 05:04:52;;;;;;;8.17;5.80;;;7.30;59.50;;;;;;5017450;28;46605;-82
2023/03/20 05:07:18;;;;;;;8.73;6.17;;;7.40;58.70;;;;;;5025034;28;46587;-81
2023/03/20 05:09:45;;;;;;;7.10;5.47;;;7.60;58.20;;;;;;5025917;28;46605;-81
2023/03/20 05:12:10;;;;;;;8.10;5.87;;;7.70;57.80;;;;;;5025056;28;46502;-82
2023/03/20 05:14:36;;;;;;;9.50;6.53;;;7.80;57.40;;;;;;5049443;28;48080;-81
2023/03/20 05:17:01;;;;;;;10.47;6.13;;;7.90;57.30;;;;;;5015223;28;46478;-79
2023/03/20 05:19:27;;;;;;;9.30;6.60;;;8.00;57.10;;;;;;5022654;28;46568;-80
2023/03/20 05:21:53;;;;;;;8.20;6.20;;;8.10;56.90;;;;;;5016110;28;46340;-81
2023/03/20 05:24:19;;;;;;;9.60;6.70;;;8.20;56.80;;;;;;5016575;28;46221;-80
2023/03/20 05:26:45;;;;;;;8.90;6.70;;;8.20;56.80;;;;;;5013699;28;46550;-79
2023/03/20 05:29:11;;;;;;;9.23;6.30;;;8.20;56.90;;;;;;5013168;28;45860;-80
2023/03/20 05:31:37;;;;;;;9.00;6.30;;;8.30;56.90;;;;;;5018510;28;46424;-81
2023/03/20 05:34:04;;;;;;;8.97;6.60;;;8.30;56.90;;;;;;5016972;28;46415;-81
2023/03/20 05:36:29;;;;;;;8.60;6.10;;;8.40;56.90;;;;;;5015996;28;46391;-81
2023/03/20 05:38:55;;;;;;;8.33;6.30;;;8.50;56.90;;;;;;5017922;28;46254;-81
2023/03/20 05:41:21;;;;;;;8.20;6.03;;;8.50;56.90;;;;;;5018214;28;46629;-81
2023/03/20 05:43:47;;;;;;;8.90;6.40;;;8.50;56.90;;;;;;5019926;28;47256;-81
2023/03/20 05:46:12;;;;;;;9.30;5.70;;;8.60;56.90;;;;;;5015794;28;46759;-80
2023/03/20 05:48:38;;;;;;;10.70;6.47;;;8.60;56.80;;;;;;5016079;28;46367;-81
2023/03/20 05:51:04;;;;;;;7.97;6.30;;;8.60;56.60;;;;;;5044495;28;46359;-80
2023/03/20 05:53:30;;;;;;;8.77;6.20;;;8.70;56.60;;;;;;5013526;28;46411;-79
2023/03/20 05:55:55;;;;;;;10.00;6.53;;;8.80;56.50;;;;;;5012415;28;46424;-81
2023/03/20 05:58:21;;;;;;;8.97;6.30;;;8.80;56.60;;;;;;5015461;28;46406;-81
2023/03/20 06:00:47;;;;;;;9.37;6.40;;;8.80;56.60;;;;;;5043534;28;46593;-81
2023/03/20 06:03:12;;;;;;;6.90;5.10;;;8.90;56.70;;;;;;5011232;28;47485;-81
2023/03/20 06:05:38;;;;;;;8.87;6.70;;;9.00;56.60;;;;;;5019922;28;46426;-81
2023/03/20 06:08:04;;;;;;;7.30;5.70;;;9.00;56.50;;;;;;5018661;28;46530;-80
2023/03/20 06:10:30;;;;;;;7.33;5.40;;;9.10;56.20;;;;;;5014760;28;46700;-81
2023/03/20 06:12:59;;;;;;;9.27;7.00;;;9.10;56.30;;;;;;5013663;28;48140;-80
2023/03/20 06:15:28;;;;;;;11.10;6.33;;;9.10;56.20;;;;;;5015271;28;46550;-79
2023/03/20 06:17:55;;;;;;;8.00;6.10;;;9.20;56.50;;;;;;5011708;28;46450;-81
2023/03/20 06:20:20;;;;;;;9.20;5.23;;;9.20;56.50;;;;;;5014547;28;46096;-81
2023/03/20 06:22:46;;;;;;;8.50;5.53;;;9.20;57.70;;;;;;5017592;28;46360;-81
2023/03/20 06:25:11;;;;;;;27.37;14.20;;;9.20;56.70;;;;;;5010925;28;46545;-81
2023/03/20 06:27:37;;;;;;;89.27;46.60;;;9.10;57.00;;;;;;5020523;28;46489;-82
2023/03/20 06:30:03;;;;;;;27.50;17.87;;;9.00;57.20;;;;;;5012960;28;46361;-81
2023/03/20 06:32:29;;;;;;;17.77;11.63;;;9.00;57.20;;;;;;5015175;28;47083;-81
2023/03/20 06:34:54;;;;;;;11.80;6.50;;;9.10;57.20;;;;;;5019022;28;46365;-81
2023/03/20 06:37:20;;;;;;;7.20;5.83;;;9.20;57.20;;;;;;5012226;28;46428;-82
2023/03/20 06:39:46;;;;;;;7.63;5.83;;;9.40;57.00;;;;;;5017963;28;46591;-83
2023/03/20 06:42:12;;;;;;;7.83;5.47;;;9.80;56.10;;;;;;5008870;28;47031;-80
2023/03/20 06:44:38;;;;;;;7.53;5.83;;;10.10;54.10;;;;;;5019776;28;46450;-80
2023/03/20 06:47:04;;;;;;;8.53;5.30;;;10.40;53.10;;;;;;5020124;28;46233;-81
2023/03/20 06:49:30;;;;;;;8.40;5.60;;;10.60;52.20;;;;;;5017812;28;46438;-82
2023/03/20 06:51:55;;;;;;;8.37;5.60;;;10.80;52.40;;;;;;5009147;28;46451;-80
2023/03/20 06:54:21;;;;;;;8.57;6.10;;;10.90;52.00;;;;;;5013224;28;46562;-80
2023/03/20 06:56:47;;;;;;;7.83;5.07;;;11.00;51.60;;;;;;5019096;28;46484;-79
2023/03/20 06:59:12;;;;;;;7.00;4.80;;;11.10;51.10;;;;;;5012061;28;46459;-80
2023/03/20 07:01:38;;;;;;;7.13;5.07;;;11.20;50.60;;;;;;5011254;28;47013;-81
2023/03/20 07:04:05;;;;;;;6.80;4.83;;;11.20;50.30;;;;;;5013141;28;46443;-79
2023/03/20 07:06:31;;;;;;;7.73;5.17;;;11.10;50.50;;;;;;5011284;28;46172;-81
2023/03/20 07:08:56;;;;;;;9.17;5.47;;;11.20;50.50;;;;;;5010679;28;46438;-80
2023/03/20 07:11:22;;;;;;;8.33;4.73;;;11.40;50.20;;;;;;5008643;28;46902;-80
2023/03/20 07:13:48;;;;;;;5.13;4.00;;;11.60;49.60;;;;;;5011378;28;46407;-81
2023/03/20 07:16:13;;;;;;;7.13;5.03;;;11.80;48.80;;;;;;5010887;28;46435;-80
2023/03/20 07:18:39;;;;;;;9.53;4.80;;;11.90;49.50;;;;;;5009846;28;46541;-79
2023/03/20 07:21:06;;;;;;;6.30;4.90;;;12.00;48.20;;;;;;5009178;28;47101;-82
2023/03/20 07:23:36;;;;;;;6.53;5.13;;;12.00;47.90;;;;;;5007538;28;46522;-81
2023/03/20 07:26:02;;;;;;;9.47;4.47;;;11.90;48.20;;;;;;5007426;28;45819;-81
2023/03/20 07:28:27;;;;;;;7.13;4.23;;;12.00;48.40;;;;;;5012561;28;46400;-80
2023/03/20 07:30:53;;;;;;;5.33;3.90;;;11.80;48.60;;;;;;5013591;28;46536;-82
2023/03/20 07:33:19;;;;;;;5.43;3.80;;;11.80;48.80;;;;;;5010290;28;46360;-78
2023/03/20 07:35:45;;;;;;;5.63;4.17;;;11.90;48.80;;;;;;5008308;28;46413;-82
2023/03/20 07:38:11;;;;;;;6.10;4.10;;;11.90;48.70;;;;;;5014456;28;46654;-79
2023/03/20 07:40:36;;;;;;;5.87;4.37;;;11.90;48.90;;;;;;5015279;28;46506;-79
2023/03/20 07:43:02;;;;;;;5.60;4.00;;;12.20;48.90;;;;;;5011498;28;45895;-81
2023/03/20 07:45:28;;;;;;;12.27;3.70;;;12.60;48.70;;;;;;5015843;28;46399;-80
2023/03/20 07:47:53;;;;;;;8.43;4.30;;;12.80;47.40;;;;;;5014088;28;46803;-82
2023/03/20 07:50:19;;;;;;;6.80;3.27;;;12.90;47.00;;;;;;5010625;28;48684;-80
2023/03/20 07:52:46;;;;;;;5.10;2.80;;;13.20;46.20;;;;;;5005939;28;46772;-81
2023/03/20 07:55:12;;;;;;;3.97;2.90;;;13.00;45.50;;;;;;5011474;28;46411;-79
2023/03/20 07:57:37;;;;;;;4.27;3.10;;;13.30;44.80;;;;;;5011826;28;46411;-80
2023/03/20 08:00:03;;;;;;;5.30;3.03;;;13.70;44.50;;;;;;5012009;28;47496;-80
2023/03/20 08:02:29;;;;;;;5.17;2.33;;;13.90;43.70;;;;;;5013241;28;46689;-79
2023/03/20 08:04:55;;;;;;;3.60;2.60;;;13.80;42.20;;;;;;5009916;28;46257;-80
2023/03/20 08:07:20;;;;;;;4.63;2.90;;;13.50;42.90;;;;;;5010715;28;46491;-80
2023/03/20 08:09:46;;;;;;;4.77;2.67;;;13.20;43.20;;;;;;5008396;28;47075;-80
2023/03/20 08:12:11;;;;;;;4.20;3.10;;;13.00;43.00;;;;;;5012505;28;46522;-80
2023/03/20 08:14:38;;;;;;;8.90;3.53;;;12.60;43.80;;;;;;5010031;28;46388;-78
2023/03/20 08:17:04;;;;;;;5.53;3.60;;;12.70;44.00;;;;;;5013701;28;46245;-80
2023/03/20 08:19:30;;;;;;;5.43;3.67;;;12.70;43.80;;;;;;5016785;28;47163;-80
2023/03/20 08:21:55;;;;;;;6.03;3.07;;;12.40;44.40;;;;;;5010148;28;46734;-80
2023/03/20 08:24:21;;;;;;;6.23;2.70;;;12.40;44.70;;;;;;5013958;28;46572;-79
2023/03/20 08:26:47;;;;;;;4.10;2.90;;;12.90;44.40;;;;;;5008395;28;46578;-78
2023/03/20 08:29:16;;;;;;;6.93;3.40;;;13.30;43.30;;;;;;5008720;28;47285;-81
2023/03/20 08:31:41;;;;;;;3.37;2.53;;;13.60;42.50;;;;;;5009553;28;46622;-79
2023/03/20 08:34:07;;;;;;;4.00;2.50;;;13.80;40.60;;;;;;5013307;28;46431;-77
2023/03/20 08:36:32;;;;;;;3.43;2.50;;;13.50;41.60;;;;;;5016842;28;46508;-79
2023/03/20 08:38:58;;;;;;;3.67;2.43;;;13.40;42.70;;;;;;5013737;28;46329;-80
2023/03/20 08:41:24;;;;;;;4.23;2.17;;;13.30;41.60;;;;;;5012053;28;45801;-81
2023/03/20 08:43:49;;;;;;;6.70;3.33;;;13.40;41.60;;;;;;5013059;28;46397;-78
2023/03/20 08:46:15;;;;;;;3.40;2.20;;;13.30;41.60;;;;;;5016209;28;46639;-78
2023/03/20 08:48:41;;;;;;;4.40;2.33;;;13.00;41.80;;;;;;5052738;28;47061;-80
2023/03/20 08:51:07;;;;;;;5.37;3.03;;;12.80;41.90;;;;;;5043169;28;46419;-79
2023/03/20 08:53:32;;;;;;;7.63;3.20;;;12.80;42.60;;;;;;5014123;28;46486;-78
2023/03/20 08:55:58;;;;;;;6.13;2.63;;;13.30;42.00;;;;;;5016161;28;46520;-77
2023/03/20 08:58:23;;;;;;;5.00;2.70;;;13.50;40.90;;;;;;5014936;28;47541;-78
2023/03/20 09:00:49;;;;;;;4.13;2.30;;;13.70;41.00;;;;;;5015659;28;46793;-78
2023/03/20 09:03:17;;;;;;;3.93;2.60;;;13.90;40.30;;;;;;5010634;28;47236;-79
2023/03/20 09:05:44;;;;;;;3.93;2.60;;;13.90;39.40;;;;;;5016771;28;46456;-79
2023/03/20 09:08:10;;;;;;;3.43;2.50;;;13.90;39.30;;;;;;5009797;28;46728;-79
2023/03/20 09:10:36;;;;;;;3.83;2.33;;;13.80;38.30;;;;;;5010843;28;46396;-77
2023/03/20 09:13:02;;;;;;;3.33;2.10;;;13.70;38.80;;;;;;5014774;28;46368;-78
2023/03/20 09:15:27;;;;;;;4.20;3.00;;;13.40;38.30;;;;;;5016925;28;46368;-80
2023/03/20 09:17:53;;;;;;;5.63;2.67;;;13.30;38.90;;;;;;5012077;28;46430;-81
2023/03/20 09:20:19;;;;;;;4.67;2.73;;;13.40;39.00;;;;;;5015741;28;46412;-79
2023/03/20 09:22:45;;;;;;;4.40;2.40;;;13.50;39.10;;;;;;5013471;28;46392;-78
2023/03/20 09:25:11;;;;;;;6.40;3.30;;;13.60;38.20;;;;;;5011370;28;46647;-79
2023/03/20 09:27:37;;;;;;;7.87;3.20;;;13.50;38.20;;;;;;5011893;28;46552;-79
2023/03/20 09:30:06;;;;;;;3.63;2.13;;;13.50;38.20;;;;;;5012228;28;46667;-80
2023/03/20 09:32:32;;;;;;;3.97;2.10;;;14.10;38.40;;;;;;5017976;28;46495;-80
2023/03/20 09:34:57;;;;;;;3.20;1.80;;;14.40;36.90;;;;;;5020670;28;46470;-80
2023/03/20 09:37:23;;;;;;;3.27;1.90;;;14.30;35.70;;;;;;5025623;28;46790;-78
2023/03/20 09:39:49;;;;;;;3.30;2.07;;;14.60;35.80;;;;;;5026075;28;45831;-77
2023/03/20 09:42:27;;;;;;;2.77;1.90;;;14.80;35.30;;;;;;5014163;28;46258;-78
2023/03/20 09:45:18;;;;;;;2.90;1.70;;;14.70;35.40;;;;;;5011530;28;46842;-77
2023/03/20 09:47:59;;;;;;;3.20;2.03;;;15.00;35.10;;;;;;5014788;28;48111;-79
2023/03/20 09:50:28;;;;;;;3.67;1.90;;;15.40;35.00;;;;;;5015319;28;45792;-79
2023/03/20 09:53:19;;;;;;;2.97;1.80;;;15.70;34.10;;;;;;5045536;28;46774;-78
2023/03/20 09:55:46;;;;;;;2.80;1.80;;;15.60;33.20;;;;;;5011949;28;46192;-79
2023/03/20 09:58:26;;;;;;;3.70;1.93;;;15.60;33.30;;;;;;5010298;28;46680;-78
2023/03/20 10:00:56;;;;;;;3.33;2.10;;;16.00;32.20;;;;;;5014224;28;46394;-78
2023/03/20 10:03:42;;;;;;;3.30;2.00;;;16.60;30.90;;;;;;5010441;28;45922;-79
2023/03/20 10:06:15;;;;;;;2.67;1.73;;;17.00;29.90;;;;;;5017248;28;46431;-79
2023/03/20 10:08:41;;;;;;;2.53;1.60;;;16.90;29.80;;;;;;5012386;28;46466;-79
2023/03/20 10:11:43;;;;;;;6.03;1.53;;;16.90;29.70;;;;;;5011837;28;46402;-78
2023/03/20 10:14:30;;;;;;;3.30;1.90;;;16.90;29.00;;;;;;5013803;28;46400;-80
2023/03/20 10:17:18;;;;;;;3.00;1.83;;;16.90;29.00;;;;;;5011264;28;46542;-80
2023/03/20 10:19:52;;;;;;;3.00;1.80;;;16.60;29.30;;;;;;5010518;28;46399;-80
2023/03/20 10:22:35;;;;;;;2.90;1.70;;;16.60;29.70;;;;;;5012068;28;46467;-80
2023/03/20 10:25:06;;;;;;;3.53;2.00;;;16.00;30.00;;;;;;5010353;28;46482;-79
2023/03/20 10:27:41;;;;;;;3.93;1.73;;;15.90;30.20;;;;;;5044956;28;46489;-81
2023/03/20 10:30:07;;;;;;;4.30;1.70;;;15.20;29.80;;;;;;5014197;28;46446;-80
2023/03/20 10:32:41;;;;;;;4.87;2.20;;;14.50;29.50;;;;;;5013456;28;45876;-81
2023/03/20 10:35:27;;;;;;;2.60;1.50;;;14.00;30.00;;;;;;5007010;28;45815;-80
2023/03/20 10:38:06;;;;;;;2.97;1.40;;;14.00;31.30;;;;;;5009836;28;46802;-79
2023/03/20 10:40:38;;;;;;;3.63;1.83;;;14.00;31.10;;;;;;5012440;28;47314;-80
2023/03/20 10:43:18;;;;;;;3.30;1.67;;;14.10;31.30;;;;;;5009753;28;46477;-79
2023/03/20 10:45:47;;;;;;;3.13;1.80;;;14.50;30.60;;;;;;5010771;28;47222;-79
2023/03/20 10:48:19;;;;;;;3.27;1.60;;;15.20;29.80;;;;;;5013738;28;46521;-79
2023/03/20 10:50:50;;;;;;;2.60;1.40;;;15.60;29.40;;;;;;5011163;28;46403;-78
2023/03/20 10:53:33;;;;;;;2.57;1.43;;;15.30;29.50;;;;;;5010449;28;46368;-80
2023/03/20 10:56:04;;;;;;;2.33;1.37;;;14.90;29.60;;;;;;5044221;28;46360;-80
2023/03/20 10:58:34;;;;;;;2.83;1.40;;;15.00;29.60;;;;;;5017808;28;46518;-79
2023/03/20 11:01:01;;;;;;;2.57;1.27;;;15.10;29.70;;;;;;5014924;28;46920;-82
2023/03/20 11:03:30;;;;;;;2.20;1.30;;;15.40;29.80;;;;;;5012797;28;46538;-79
2023/03/20 11:06:14;;;;;;;3.50;1.73;;;15.50;28.40;;;;;;5007976;28;46398;-78
2023/03/20 11:08:45;;;;;;;2.47;1.40;;;15.50;28.40;;;;;;5011470;28;46442;-77
2023/03/20 11:11:11;;;;;;;2.53;1.40;;;15.30;28.50;;;;;;5006231;28;46276;-78
2023/03/20 11:13:43;;;;;;;3.10;1.60;;;15.30;28.50;;;;;;5008758;28;46459;-80
2023/03/20 11:16:18;;;;;;;3.87;1.77;;;15.20;28.40;;;;;;5009734;28;46441;-80
2023/03/20 11:18:44;;;;;;;2.40;1.43;;;15.10;28.60;;;;;;5013433;28;46529;-81
2023/03/20 11:21:18;;;;;;;3.50;1.77;;;15.00;28.70;;;;;;5012381;28;46767;-80
2023/03/20 11:23:43;;;;;;;2.97;1.40;;;15.00;28.50;;;;;;5010867;28;46510;-79
2023/03/20 11:26:37;;;;;;;2.57;1.30;;;14.80;28.30;;;;;;5012630;28;45871;-77
2023/03/20 11:29:18;;;;;;;6.43;1.30;;;14.70;28.40;;;;;;5011961;28;46378;-81
2023/03/20 11:31:44;;;;;;;2.53;1.20;;;14.40;28.70;;;;;;5012602;28;46697;-80
2023/03/20 11:34:14;;;;;;;2.30;1.20;;;14.20;29.60;;;;;;5017427;28;46293;-79
2023/03/20 11:36:55;;;;;;;2.63;1.50;;;13.90;28.90;;;;;;5014843;28;46511;-79
2023/03/20 11:39:34;;;;;;;2.50;1.23;;;13.90;28.90;;;;;;5012441;28;46530;-82
2023/03/20 11:42:01;;;;;;;2.30;1.37;;;14.10;29.00;;;;;;5008224;28;46556;-79
2023/03/20 11:44:32;;;;;;;1.97;1.10;;;14.20;29.10;;;;;;5023478;28;46575;-80
2023/03/20 11:47:10;;;;;;;2.40;1.40;;;13.70;28.90;;;;;;5011822;28;46392;-79
2023/03/20 11:49:49;;;;;;;2.40;1.30;;;13.40;29.60;;;;;;5009048;28;46580;-78
2023/03/20 11:52:20;;;;;;;3.43;1.57;;;13.10;29.60;;;;;;5008905;28;46552;-79
2023/03/20 11:54:49;;;;;;;6.13;1.10;;;13.20;29.80;;;;;;5011361;28;46435;-78
2023/03/20 11:57:38;;;;;;;3.83;1.10;;;13.30;29.30;;;;;;5011064;28;46553;-79
2023/03/20 12:00:10;;;;;;;3.10;1.40;;;13.40;29.00;;;;;;5015471;28;46164;-81
2023/03/20 12:02:39;;;;;;;2.20;1.37;;;13.80;28.80;;;;;;5041045;28;47460;-78
2023/03/20 12:05:38;;;;;;;2.33;1.40;;;13.90;28.90;;;;;;5015830;28;46474;-86
2023/03/20 12:08:20;;;;;;;7.03;1.67;;;14.20;28.70;;;;;;4998099;28;46519;-83
2023/03/20 12:10:56;;;;;;;3.30;1.53;;;14.50;28.00;;;;;;5016425;28;46353;-82
2023/03/20 12:13:28;;;;;;;2.70;1.67;;;14.70;27.50;;;;;;5015494;28;46479;-81
2023/03/20 12:16:00;;;;;;;6.70;1.93;;;14.60;27.70;;;;;;5016611;28;46492;-83
2023/03/20 12:18:32;;;;;;;3.50;1.50;;;15.10;27.80;;;;;;5020377;28;45823;-80
2023/03/20 12:21:14;;;;;;;3.20;1.80;;;15.40;27.00;;;;;;5013436;28;46519;-82
2023/03/20 12:24:12;;;;;;;2.10;1.40;;;15.50;26.80;;;;;;5013418;28;47542;-82
2023/03/20 12:26:53;;;;;;;2.80;1.30;;;15.80;26.50;;;;;;5015281;28;46359;-82
2023/03/20 12:29:27;;;;;;;2.97;1.63;;;15.70;26.10;;;;;;5013214;28;46687;-79
2023/03/20 12:32:05;;;;;;;4.40;1.73;;;15.30;25.90;;;;;;5013965;28;46675;-82
2023/03/20 12:34:36;;;;;;;2.40;1.37;;;15.50;26.00;;;;;;5014214;28;47155;-81
2023/03/20 12:37:02;;;;;;;3.30;1.43;;;15.80;25.20;;;;;;5012428;28;46669;-80
2023/03/20 12:39:40;;;;;;;2.43;1.30;;;16.10;25.30;;;;;;5011851;28;46303;-81
2023/03/20 12:42:27;;;;;;;3.50;1.43;;;15.80;23.70;;;;;;5028514;28;46356;-81
2023/03/20 12:45:17;;;;;;;2.90;1.50;;;15.50;24.20;;;;;;5012775;28;46386;-80
2023/03/20 12:47:51;;;;;;;2.30;1.30;;;15.70;24.70;;;;;;5013166;28;46419;-81
2023/03/20 12:50:32;;;;;;;2.40;1.30;;;15.80;24.40;;;;;;5010437;28;46437;-79
2023/03/20 12:53:03;;;;;;;3.90;1.40;;;15.60;24.30;;;;;;5014730;28;46392;-81
2023/03/20 12:56:01;;;;;;;2.73;1.40;;;15.60;24.10;;;;;;5013345;28;46787;-81
2023/03/20 12:59:21;;;;;;;2.07;1.10;;;15.10;24.60;;;;;;5013106;28;46377;-79
2023/03/20 13:02:00;;;;;;;2.70;1.30;;;14.60;26.10;;;;;;4990734;28;45954;-81
2023/03/20 13:04:42;;;;;;;2.93;1.40;;;14.40;26.70;;;;;;5015403;28;46703;-81
2023/03/20 13:07:20;;;;;;;2.90;1.63;;;14.50;27.20;;;;;;5013405;28;47098;-83
2023/03/20 13:10:25;;;;;;;2.87;1.20;;;14.60;26.90;;;;;;5018873;28;46687;-82
2023/03/20 13:13:13;;;;;;;2.23;1.20;;;14.90;26.50;;;;;;4999966;28;46626;-81